Погода Деревнищина неделю

Тверская область, Россия

25 - 31 мая
  • 25мая
    Сегодня
    +10°
    +25°
    Ясно и безоблачно
    ВремяПогодаТемператураВлажностьДавлениеВетер, м/сВероятность осадков
    00:00Ясно и безоблачно+11°C59 %763 мм2.8 м/с2 %
    03:00Ясно и безоблачно+9°C61 %764 мм3.3 м/с2 %
    06:00Ясно и безоблачно+12°C63 %764 мм3.1 м/с2 %
    09:00Ясно и безоблачно+19°C43 %763 мм3.3 м/с2 %
    12:00Ясно и безоблачно+22°C30 %762 мм4.3 м/с2 %
    15:00Ясно и безоблачно+24°C30 %761 мм4.4 м/с2 %
    18:00Ясно и безоблачно+24°C32 %760 мм4.0 м/с2 %
    21:00Ясно и безоблачно+17°C52 %759 мм2.5 м/с2 %
  • 26мая
    Воскресенье
    +7°
    +23°
    Облачно с прояснениями
    ВремяПогодаТемператураВлажностьДавлениеВетер, м/сВероятность осадков
    00:00Ясно и безоблачно+12°C59 %759 мм3.0 м/с2 %
    03:00Ясно и безоблачно+11°C70 %759 мм2.2 м/с2 %
    06:00Практически безоблачно+13°C70 %759 мм1.8 м/с4 %
    09:00Облачно с прояснениями+20°C68 %759 мм2.4 м/с24 %
    12:00Пасмурно, ливень+19°C75 %760 мм1.5 м/с54 %
    15:00Облачно с прояснениями+22°C40 %760 мм3.5 м/с45 %
    18:00Облачно с прояснениями+21°C32 %760 мм4.6 м/с12 %
    21:00Ясно и безоблачно+15°C40 %761 мм3.6 м/с2 %
  • 27мая
    Понедельник
    +9°
    +23°
    Ясно и безоблачно
    ВремяПогодаТемператураВлажностьДавлениеВетер, м/сВероятность осадков
    00:00Ясно и безоблачно+11°C55 %761 мм3.0 м/с2 %
    03:00Ясно и безоблачно+8°C61 %762 мм2.7 м/с2 %
    06:00Ясно и безоблачно+10°C62 %763 мм2.6 м/с2 %
    09:00Ясно и безоблачно+17°C44 %763 мм2.8 м/с2 %
    12:00Ясно и безоблачно+21°C34 %763 мм2.4 м/с2 %
    15:00Ясно и безоблачно+22°C30 %762 мм1.6 м/с2 %
    18:00Ясно и безоблачно+22°C32 %761 мм1.3 м/с2 %
    21:00Ясно и безоблачно+16°C60 %761 мм2.3 м/с2 %
  • 28мая
    Вторник
    +11°
    +25°
    Ясно и безоблачно
    ВремяПогодаТемператураВлажностьДавлениеВетер, м/сВероятность осадков
    00:00Ясно и безоблачно+11°C66 %760 мм2.2 м/с2 %
    03:00Ясно и безоблачно+10°C78 %760 мм2.2 м/с2 %
    06:00Ясно и безоблачно+13°C70 %760 мм2.2 м/с2 %
    09:00Ясно и безоблачно+21°C54 %760 мм1.4 м/с2 %
    12:00Ясно и безоблачно+25°C38 %759 мм1.8 м/с3 %
    15:00Ясно и безоблачно+25°C36 %758 мм1.9 м/с3 %
    18:00Ясно и безоблачно+25°C37 %757 мм1.4 м/с3 %
    21:00Ясно и безоблачно+20°C50 %757 мм0.5 м/с2 %
  • 29мая
    Среда
    +10°
    +27°
    Практически безоблачно
    ВремяПогодаТемператураВлажностьДавлениеВетер, м/сВероятность осадков
    00:00Ясно и безоблачно+15°C71 %756 мм2.1 м/с2 %
    03:00Ясно и безоблачно+13°C83 %756 мм2.4 м/с2 %
    06:00Ясно и безоблачно+16°C73 %755 мм1.8 м/с4 %
    09:00Ясно и безоблачно+23°C46 %755 мм0.8 м/с11 %
    12:00Ясно и безоблачно+26°C35 %755 мм1.0 м/с13 %
    15:00Практически безоблачно+27°C31 %753 мм1.8 м/с15 %
    18:00Практически безоблачно+27°C33 %752 мм0.4 м/с20 %
    21:00Практически безоблачно+20°C57 %752 мм1.6 м/с12 %
Мы используем cookies
Соглашаюсь